Time;durP1;ratioP1;P1;durP2;ratioP2;P2;SDS_P1;SDS_P2;PMS_P1;PMS_P2;Temp;Humidity;BMP_temperature;BMP_pressure;BME280_temperature;BME280_humidity;BME280_pressure;Samples;Min_cycle;Max_cycle;Signal;HPM_P1;HPM_P2
2022/10/23 00:00:34;;;;;;;6.63;2.70;;;9.30;99.90;;;;;;5090900;28;20445;-65
2022/10/23 00:03:00;;;;;;;16.70;3.13;;;9.30;99.90;;;;;;5085695;28;20540;-65
2022/10/23 00:05:26;;;;;;;7.97;4.33;;;9.20;99.90;;;;;;5080325;28;20541;-65
2022/10/23 00:07:54;;;;;;;6.40;2.03;;;9.20;99.90;;;;;;5087600;28;20207;-65
2022/10/23 00:10:21;;;;;;;6.67;2.47;;;9.20;99.90;;;;;;5086894;28;20564;-67
2022/10/23 00:12:47;;;;;;;7.17;2.50;;;9.20;99.90;;;;;;5088189;28;20926;-66
2022/10/23 00:15:15;;;;;;;6.43;2.33;;;9.20;99.90;;;;;;5090685;28;20560;-66
2022/10/23 00:17:41;;;;;;;8.80;2.67;;;9.20;99.90;;;;;;5085184;28;20430;-66
2022/10/23 00:20:07;;;;;;;8.27;2.90;;;9.10;99.90;;;;;;5081887;28;20894;-66
2022/10/23 00:22:33;;;;;;;10.40;3.13;;;9.20;99.90;;;;;;5092924;28;20194;-66
2022/10/23 00:24:59;;;;;;;2.80;1.60;;;9.10;99.90;;;;;;5092432;28;20493;-66
2022/10/23 00:27:25;;;;;;;3.00;1.90;;;9.10;99.90;;;;;;5099270;28;20529;-66
2022/10/23 00:29:51;;;;;;;3.57;1.90;;;9.10;99.90;;;;;;5095375;28;20181;-66
2022/10/23 00:32:17;;;;;;;2.83;1.70;;;9.10;99.90;;;;;;5094616;28;20442;-66
2022/10/23 00:34:43;;;;;;;4.00;1.57;;;9.00;99.90;;;;;;5085857;28;20186;-66
2022/10/23 00:37:08;;;;;;;2.60;1.53;;;9.00;99.90;;;;;;5073846;28;20284;-66
2022/10/23 00:39:34;;;;;;;5.57;1.70;;;9.00;99.90;;;;;;5087936;28;20183;-66
2022/10/23 00:42:00;;;;;;;2.87;1.27;;;9.00;99.90;;;;;;5084217;28;20216;-66
2022/10/23 00:44:28;;;;;;;2.90;1.20;;;9.00;99.90;;;;;;5095288;28;20581;-66
2022/10/23 00:46:55;;;;;;;2.43;1.23;;;9.00;99.90;;;;;;5092867;28;20241;-66
2022/10/23 00:49:21;;;;;;;2.60;0.93;;;9.00;99.90;;;;;;5090884;28;20427;-66
2022/10/23 00:52:00;;;;;;;1.70;1.13;;;9.00;99.90;;;;;;5082047;28;20417;-65
2022/10/23 00:54:31;;;;;;;1.83;1.00;;;9.00;99.90;;;;;;5086005;28;20431;-66
2022/10/23 00:57:00;;;;;;;3.57;1.47;;;9.00;99.90;;;;;;5081683;28;20445;-66
2022/10/23 00:59:26;;;;;;;6.03;1.57;;;9.00;99.90;;;;;;5086586;28;20521;-66
2022/10/23 01:01:51;;;;;;;2.00;1.10;;;9.00;99.90;;;;;;5090251;28;20450;-66
2022/10/23 01:04:18;;;;;;;19.33;1.60;;;9.00;99.90;;;;;;5081803;28;20443;-67
2022/10/23 01:07:22;;;;;;;2.37;1.33;;;9.00;99.90;;;;;;5085164;28;20342;-66
2022/10/23 01:10:21;;;;;;;1.73;0.87;;;9.00;99.90;;;;;;5059683;28;20420;-66
2022/10/23 01:13:04;;;;;;;2.10;1.30;;;9.00;99.90;;;;;;5090973;28;20426;-66
2022/10/23 01:15:42;;;;;;;3.40;1.20;;;9.00;99.90;;;;;;5089324;28;20453;-65
2022/10/23 01:18:16;;;;;;;1.70;0.97;;;9.00;99.90;;;;;;5093468;28;20483;-65
2022/10/23 01:20:53;;;;;;;1.90;1.07;;;9.00;99.90;;;;;;5093368;28;20487;-66
2022/10/23 01:23:45;;;;;;;9.73;1.10;;;9.00;99.90;;;;;;5083572;28;20409;-66
2022/10/23 01:26:31;;;;;;;4.53;1.00;;;8.90;99.90;;;;;;5093797;28;20450;-67
2022/10/23 01:29:02;;;;;;;4.80;1.63;;;8.90;99.90;;;;;;5088722;28;20479;-65
2022/10/23 01:31:57;;;;;;;2.10;1.40;;;8.90;99.90;;;;;;5086823;28;20410;-66
2022/10/23 01:34:38;;;;;;;2.50;1.10;;;8.90;99.90;;;;;;5080059;28;20435;-66
2022/10/23 01:37:09;;;;;;;5.27;1.70;;;8.90;99.90;;;;;;5090387;28;20438;-66
2022/10/23 01:39:39;;;;;;;2.77;1.10;;;8.80;99.90;;;;;;5087483;28;20406;-66
2022/10/23 01:42:11;;;;;;;15.00;1.77;;;8.90;99.90;;;;;;5092006;28;20481;-67
2022/10/23 01:45:00;;;;;;;14.83;1.40;;;8.90;99.90;;;;;;5082872;28;20442;-66
2022/10/23 01:47:29;;;;;;;5.10;1.33;;;8.80;99.90;;;;;;5085314;28;20434;-66
2022/10/23 01:49:57;;;;;;;2.07;1.13;;;8.80;99.90;;;;;;5093239;28;20431;-66
2022/10/23 01:52:23;;;;;;;3.77;1.53;;;8.80;99.90;;;;;;5093119;28;20426;-66
2022/10/23 01:54:51;;;;;;;1.73;1.00;;;8.80;99.90;;;;;;5093275;28;20414;-67
2022/10/23 01:57:19;;;;;;;1.93;1.30;;;8.80;99.90;;;;;;5083685;28;20537;-66
2022/10/23 01:59:52;;;;;;;1.40;0.73;;;8.80;99.90;;;;;;5092027;28;20435;-66
2022/10/23 02:02:21;;;;;;;4.00;1.23;;;8.80;99.90;;;;;;5092416;28;20529;-66
2022/10/23 02:04:55;;;;;;;2.67;1.17;;;8.70;99.90;;;;;;5093937;28;20422;-66
2022/10/23 02:07:21;;;;;;;2.00;1.20;;;8.80;99.90;;;;;;5091742;28;20440;-66
2022/10/23 02:09:47;;;;;;;2.43;1.10;;;8.70;99.90;;;;;;5082814;28;20480;-66
2022/10/23 02:12:24;;;;;;;5.00;1.50;;;8.70;99.90;;;;;;5091636;28;20442;-66
2022/10/23 02:14:57;;;;;;;1.90;0.90;;;8.70;99.90;;;;;;5085874;28;20181;-66
2022/10/23 02:17:58;;;;;;;3.37;1.40;;;8.70;99.90;;;;;;5083171;28;20415;-66
2022/10/23 02:20:23;;;;;;;1.70;0.83;;;8.70;99.90;;;;;;5080318;28;20463;-65
2022/10/23 02:23:18;;;;;;;4.13;0.80;;;8.70;99.90;;;;;;5092341;28;20414;-66
2022/10/23 02:25:59;;;;;;;2.70;1.27;;;8.70;99.90;;;;;;5082169;28;20197;-65
2022/10/23 02:28:33;;;;;;;7.83;1.10;;;8.70;99.90;;;;;;5083244;28;20485;-66
2022/10/23 02:31:00;;;;;;;4.13;1.40;;;8.70;99.90;;;;;;5089938;28;20773;-66
2022/10/23 02:33:29;;;;;;;1.67;0.80;;;8.70;99.90;;;;;;5087998;28;20526;-65
2022/10/23 02:35:55;;;;;;;1.97;1.00;;;8.60;99.90;;;;;;5092848;28;20445;-66
2022/10/23 02:38:41;;;;;;;1.83;1.00;;;8.70;99.90;;;;;;5089049;28;20457;-66
2022/10/23 02:41:25;;;;;;;1.30;0.70;;;8.70;99.90;;;;;;5089937;28;20176;-67
2022/10/23 02:44:09;;;;;;;7.20;1.30;;;8.70;99.90;;;;;;5087660;28;20436;-65
2022/10/23 02:46:41;;;;;;;2.50;0.97;;;8.60;99.90;;;;;;5067432;28;20490;-67
2022/10/23 02:49:22;;;;;;;1.70;1.10;;;8.70;99.90;;;;;;5092995;28;20926;-66
2022/10/23 02:52:08;;;;;;;2.37;1.03;;;8.60;99.90;;;;;;5091608;28;20521;-66
2022/10/23 02:55:00;;;;;;;2.10;1.20;;;8.70;99.90;;;;;;5092549;28;20415;-66
2022/10/23 02:57:45;;;;;;;4.50;0.90;;;8.70;99.90;;;;;;5079515;28;20525;-67
2022/10/23 03:00:20;;;;;;;1.93;1.10;;;8.60;99.90;;;;;;5091722;28;20417;-66
2022/10/23 03:02:58;;;;;;;2.73;1.40;;;8.70;99.90;;;;;;5091027;28;20476;-66
2022/10/23 03:05:34;;;;;;;2.20;1.07;;;8.70;99.90;;;;;;5067841;28;20826;-66
2022/10/23 03:08:03;;;;;;;1.50;0.80;;;8.70;99.90;;;;;;5084954;28;20430;-66
2022/10/23 03:10:28;;;;;;;1.87;1.10;;;8.70;99.90;;;;;;5083580;28;20414;-66
2022/10/23 03:12:54;;;;;;;2.40;1.63;;;8.70;99.90;;;;;;5090874;28;20433;-66
2022/10/23 03:15:19;;;;;;;11.63;1.70;;;8.70;99.90;;;;;;5086676;28;20260;-66
2022/10/23 03:17:45;;;;;;;1.93;1.03;;;8.80;99.90;;;;;;5088669;28;20176;-65
2022/10/23 03:20:11;;;;;;;3.70;1.40;;;8.80;99.90;;;;;;5091441;28;20268;-66
2022/10/23 03:22:37;;;;;;;4.53;1.13;;;8.90;99.90;;;;;;5086636;28;20652;-66
2022/10/23 03:25:03;;;;;;;3.60;1.23;;;8.90;99.90;;;;;;5090536;28;20267;-66
2022/10/23 03:27:28;;;;;;;2.10;0.97;;;9.00;99.90;;;;;;5089786;28;20172;-66
2022/10/23 03:29:54;;;;;;;4.70;2.00;;;9.00;99.90;;;;;;5088534;28;20786;-66
2022/10/23 03:32:20;;;;;;;6.10;1.70;;;9.10;99.90;;;;;;5086064;28;20188;-65
2022/10/23 03:34:45;;;;;;;4.33;1.37;;;9.20;99.90;;;;;;5090553;28;20185;-66
2022/10/23 03:37:11;;;;;;;2.30;1.37;;;9.20;99.90;;;;;;5090510;28;20263;-66
2022/10/23 03:39:36;;;;;;;2.60;1.03;;;9.30;99.90;;;;;;5086997;28;20181;-67
2022/10/23 03:42:02;;;;;;;4.13;1.40;;;9.20;99.90;;;;;;5083961;28;20688;-66
2022/10/23 03:44:29;;;;;;;5.37;1.27;;;9.20;99.90;;;;;;5086054;28;20173;-67
2022/10/23 03:46:56;;;;;;;2.20;1.20;;;9.20;99.90;;;;;;5071590;28;20210;-66
2022/10/23 03:49:21;;;;;;;5.93;1.07;;;9.20;99.90;;;;;;5092428;28;20429;-66
2022/10/23 03:51:51;;;;;;;2.57;1.43;;;9.20;99.90;;;;;;5086621;28;20438;-66
2022/10/23 03:54:22;;;;;;;2.57;0.93;;;9.10;99.90;;;;;;5091770;28;20544;-66
2022/10/23 03:56:48;;;;;;;1.87;1.20;;;9.00;99.90;;;;;;5088230;28;20755;-66
2022/10/23 03:59:14;;;;;;;2.47;1.00;;;9.00;99.90;;;;;;5088990;28;20438;-66
2022/10/23 04:01:40;;;;;;;3.10;1.73;;;9.00;99.90;;;;;;5086444;28;20438;-66
2022/10/23 04:04:05;;;;;;;2.50;1.40;;;8.90;99.90;;;;;;5089310;28;20188;-66
2022/10/23 04:06:31;;;;;;;3.67;1.27;;;8.90;99.90;;;;;;5087018;28;20557;-66
2022/10/23 04:08:57;;;;;;;6.57;1.27;;;8.90;99.90;;;;;;5085032;28;20633;-67
2022/10/23 04:11:22;;;;;;;4.40;1.13;;;8.90;99.90;;;;;;5090822;28;20215;-66
2022/10/23 04:13:48;;;;;;;2.63;1.47;;;8.90;99.90;;;;;;5089298;28;20607;-66
2022/10/23 04:16:14;;;;;;;5.53;1.87;;;8.80;99.90;;;;;;5086664;28;20188;-67
2022/10/23 04:18:42;;;;;;;3.90;1.63;;;8.90;99.90;;;;;;5087409;28;20251;-66
2022/10/23 04:21:08;;;;;;;2.77;1.60;;;8.90;99.90;;;;;;5089943;28;20446;-66
2022/10/23 04:23:34;;;;;;;2.53;1.00;;;8.90;99.90;;;;;;5087679;28;20551;-66
2022/10/23 04:26:00;;;;;;;1.80;1.00;;;8.90;99.90;;;;;;5084311;28;20555;-66
2022/10/23 04:28:26;;;;;;;3.43;1.20;;;8.90;99.90;;;;;;5089730;28;20168;-66
2022/10/23 04:30:51;;;;;;;2.07;1.30;;;9.00;99.90;;;;;;5091257;28;20180;-65
2022/10/23 04:33:17;;;;;;;5.80;1.37;;;9.00;99.90;;;;;;5090111;28;20410;-66
2022/10/23 04:35:43;;;;;;;2.23;1.37;;;9.00;99.90;;;;;;5090410;28;20183;-66
2022/10/23 04:38:09;;;;;;;2.67;1.40;;;9.10;99.90;;;;;;5085441;28;20196;-66
2022/10/23 04:40:34;;;;;;;3.80;1.50;;;9.10;99.90;;;;;;5086253;28;20242;-66
2022/10/23 04:43:00;;;;;;;5.10;1.80;;;9.10;99.90;;;;;;5086306;28;20200;-66
2022/10/23 04:45:26;;;;;;;3.77;1.00;;;9.10;99.90;;;;;;5085537;28;20719;-65
2022/10/23 04:47:55;;;;;;;2.13;1.23;;;9.20;99.90;;;;;;5082570;28;20401;-66
2022/10/23 04:50:23;;;;;;;3.67;1.37;;;9.20;99.90;;;;;;5085792;28;20180;-66
2022/10/23 04:52:53;;;;;;;3.23;1.30;;;9.10;99.90;;;;;;5083308;28;20439;-66
2022/10/23 04:55:19;;;;;;;2.03;1.17;;;9.10;99.90;;;;;;5087156;28;20494;-66
2022/10/23 04:57:45;;;;;;;3.57;1.43;;;9.10;99.90;;;;;;5084536;28;20477;-66
2022/10/23 05:00:14;;;;;;;2.43;1.23;;;9.10;99.90;;;;;;5082920;28;20417;-66
2022/10/23 05:02:40;;;;;;;1.90;1.10;;;9.10;99.90;;;;;;5089131;28;20212;-66
2022/10/23 05:05:07;;;;;;;2.10;1.17;;;9.10;99.90;;;;;;5089137;28;20480;-67
2022/10/23 05:07:33;;;;;;;4.13;1.33;;;9.10;99.90;;;;;;5089299;28;20188;-66
2022/10/23 05:09:59;;;;;;;3.07;1.60;;;9.00;99.90;;;;;;5094710;28;20414;-66
2022/10/23 05:12:26;;;;;;;7.53;1.30;;;9.00;99.90;;;;;;5084320;28;20430;-67
2022/10/23 05:14:52;;;;;;;4.43;1.40;;;9.00;99.90;;;;;;5090838;28;20656;-66
2022/10/23 05:17:49;;;;;;;2.13;1.40;;;9.00;99.90;;;;;;5090238;28;20536;-66
2022/10/23 05:20:19;;;;;;;5.30;2.13;;;9.00;99.90;;;;;;5073276;28;20427;-66
2022/10/23 05:22:49;;;;;;;3.77;1.90;;;9.10;99.90;;;;;;5092355;28;20456;-66
2022/10/23 05:25:15;;;;;;;1.93;1.07;;;9.30;99.90;;;;;;5091370;28;20472;-66
2022/10/23 05:27:40;;;;;;;2.30;1.40;;;9.20;99.90;;;;;;5091009;28;20906;-66
2022/10/23 05:30:06;;;;;;;3.50;1.53;;;9.20;99.90;;;;;;5088413;28;20272;-65
2022/10/23 05:32:33;;;;;;;2.90;1.80;;;9.20;99.90;;;;;;5089818;28;20181;-66
2022/10/23 05:35:02;;;;;;;2.10;1.73;;;9.20;99.90;;;;;;5092891;28;20438;-66
2022/10/23 05:37:27;;;;;;;4.63;2.10;;;9.20;99.90;;;;;;5090310;28;20517;-67
2022/10/23 05:39:53;;;;;;;3.87;2.60;;;9.40;99.90;;;;;;5093173;28;20533;-66
2022/10/23 05:42:19;;;;;;;4.00;2.40;;;9.20;99.90;;;;;;5089573;28;20242;-66
2022/10/23 05:44:44;;;;;;;4.13;2.40;;;9.20;99.90;;;;;;5091946;28;20181;-66
2022/10/23 05:47:10;;;;;;;3.30;1.97;;;9.30;99.90;;;;;;5092399;28;20209;-66
2022/10/23 05:49:36;;;;;;;7.30;2.30;;;9.30;99.90;;;;;;5071702;28;20177;-65
2022/10/23 05:52:01;;;;;;;4.27;2.53;;;9.30;99.90;;;;;;5089881;28;20184;-66
2022/10/23 05:54:27;;;;;;;15.93;2.70;;;9.30;99.90;;;;;;5082376;28;20189;-66
2022/10/23 05:56:54;;;;;;;6.70;2.97;;;9.30;99.90;;;;;;5074368;28;20196;-65
2022/10/23 05:59:20;;;;;;;4.30;2.40;;;9.30;99.90;;;;;;5074287;28;20188;-66
2022/10/23 06:01:45;;;;;;;7.17;2.60;;;9.30;99.90;;;;;;5092262;28;20930;-67
2022/10/23 06:04:11;;;;;;;5.07;2.47;;;9.30;99.90;;;;;;5090535;28;20217;-66
2022/10/23 06:06:36;;;;;;;4.67;2.43;;;9.30;99.90;;;;;;5088633;28;20219;-65
2022/10/23 06:09:03;;;;;;;7.73;2.77;;;9.30;99.90;;;;;;5087038;28;20191;-67
2022/10/23 06:11:29;;;;;;;5.23;2.50;;;9.30;99.90;;;;;;5086944;28;20177;-67
2022/10/23 06:13:54;;;;;;;5.27;3.23;;;9.30;99.90;;;;;;5082592;28;20446;-67
2022/10/23 06:16:24;;;;;;;5.70;2.73;;;9.20;99.90;;;;;;5092393;28;20245;-66
2022/10/23 06:18:49;;;;;;;4.60;2.87;;;9.20;99.90;;;;;;5072550;28;20184;-66
2022/10/23 06:21:16;;;;;;;4.60;2.90;;;9.20;99.90;;;;;;5091602;28;20449;-66
2022/10/23 06:23:43;;;;;;;6.73;2.67;;;9.30;99.90;;;;;;5086140;28;20241;-66
2022/10/23 06:26:11;;;;;;;4.80;3.20;;;9.30;99.90;;;;;;5090259;28;20657;-66
2022/10/23 06:28:37;;;;;;;5.67;3.10;;;9.30;99.90;;;;;;5087372;28;20477;-66
2022/10/23 06:31:07;;;;;;;2.60;1.23;;;9.30;99.90;;;;;;5083580;28;20533;-66
2022/10/23 06:33:33;;;;;;;2.70;1.70;;;9.40;99.90;;;;;;5090094;28;20429;-67
2022/10/23 06:35:59;;;;;;;3.00;1.50;;;9.40;99.90;;;;;;5088706;28;20435;-66
2022/10/23 06:38:25;;;;;;;5.10;1.70;;;9.50;99.90;;;;;;5089743;28;20249;-66
2022/10/23 06:40:55;;;;;;;3.60;1.30;;;9.50;99.90;;;;;;5085106;28;20191;-66
2022/10/23 06:43:21;;;;;;;3.30;1.53;;;9.60;99.90;;;;;;5089206;28;20188;-66
2022/10/23 06:45:47;;;;;;;2.50;1.50;;;9.70;99.90;;;;;;5090444;28;20498;-66
2022/10/23 06:48:16;;;;;;;8.43;1.77;;;9.70;99.90;;;;;;5091747;28;20442;-66
2022/10/23 06:50:41;;;;;;;2.90;1.40;;;9.80;99.90;;;;;;5089287;28;20461;-67
2022/10/23 06:53:08;;;;;;;3.23;1.97;;;9.90;99.90;;;;;;5091948;28;20934;-66
2022/10/23 06:55:34;;;;;;;3.10;1.77;;;9.90;99.90;;;;;;5085452;28;20188;-65
2022/10/23 06:57:59;;;;;;;5.30;1.73;;;9.90;99.90;;;;;;5092155;28;20441;-67
2022/10/23 07:00:25;;;;;;;2.23;1.63;;;10.10;99.90;;;;;;5087692;28;20188;-67
2022/10/23 07:02:51;;;;;;;3.00;1.90;;;10.10;99.90;;;;;;5087238;28;20212;-67
2022/10/23 07:05:18;;;;;;;1.60;0.90;;;10.20;99.90;;;;;;5069427;28;20185;-66
2022/10/23 07:07:43;;;;;;;2.77;2.00;;;10.30;99.90;;;;;;5089129;28;20426;-64
2022/10/23 07:10:09;;;;;;;5.60;2.43;;;10.40;99.90;;;;;;5089555;28;20971;-65
2022/10/23 07:12:34;;;;;;;3.83;2.50;;;10.50;99.90;;;;;;5089984;28;20203;-65
2022/10/23 07:15:00;;;;;;;3.57;2.20;;;10.70;99.90;;;;;;5085594;28;20180;-65
2022/10/23 07:17:28;;;;;;;3.57;2.40;;;10.70;99.90;;;;;;5089987;28;20578;-65
2022/10/23 07:19:53;;;;;;;4.90;1.97;;;10.80;99.90;;;;;;5089311;28;20254;-65
2022/10/23 07:22:19;;;;;;;2.27;1.47;;;11.00;99.90;;;;;;5081617;28;20520;-64
2022/10/23 07:24:44;;;;;;;2.80;1.83;;;11.10;99.90;;;;;;5097233;28;20221;-64
2022/10/23 07:27:10;;;;;;;2.80;1.80;;;11.30;99.90;;;;;;5085574;28;20204;-64
2022/10/23 07:29:35;;;;;;;2.70;1.87;;;11.50;99.90;;;;;;5091511;28;20582;-64
2022/10/23 07:32:01;;;;;;;3.83;2.17;;;11.50;99.90;;;;;;5084444;28;20180;-64
2022/10/23 07:34:27;;;;;;;3.37;1.80;;;11.60;99.90;;;;;;5087802;28;20180;-64
2022/10/23 07:36:53;;;;;;;5.33;2.20;;;11.70;99.90;;;;;;5093161;28;20223;-64
2022/10/23 07:39:21;;;;;;;2.33;1.27;;;11.80;99.90;;;;;;5092308;28;20291;-64
2022/10/23 07:41:47;;;;;;;8.13;1.40;;;11.90;99.90;;;;;;5087838;28;20454;-64
2022/10/23 07:44:12;;;;;;;2.37;1.30;;;12.00;99.90;;;;;;5063318;28;20449;-64
2022/10/23 07:46:38;;;;;;;5.87;1.93;;;12.20;99.90;;;;;;5085681;28;20470;-64
2022/10/23 07:49:04;;;;;;;3.23;1.13;;;12.40;99.90;;;;;;5087208;28;20185;-64
2022/10/23 07:51:29;;;;;;;1.80;0.97;;;12.50;99.90;;;;;;5086190;28;20844;-64
2022/10/23 07:53:55;;;;;;;1.60;0.80;;;12.50;99.90;;;;;;5088399;28;20169;-64
2022/10/23 07:56:23;;;;;;;3.27;1.10;;;12.70;99.90;;;;;;5089479;28;20184;-64
2022/10/23 07:58:52;;;;;;;5.70;2.40;;;12.90;99.90;;;;;;5072192;28;20176;-65
2022/10/23 08:01:31;;;;;;;3.60;1.53;;;13.10;99.90;;;;;;5089611;28;20438;-64
2022/10/23 08:03:57;;;;;;;4.10;1.63;;;13.20;99.90;;;;;;5082342;28;20443;-64
2022/10/23 08:06:22;;;;;;;1.70;0.83;;;13.30;99.90;;;;;;5088275;28;20610;-64
2022/10/23 08:08:48;;;;;;;5.80;1.60;;;13.50;99.90;;;;;;5087310;28;20259;-64
2022/10/23 08:11:16;;;;;;;2.87;1.50;;;13.80;99.90;;;;;;5087183;28;20184;-64
2022/10/23 08:13:43;;;;;;;2.60;1.30;;;14.30;99.90;;;;;;5084416;28;20591;-65
2022/10/23 08:16:08;;;;;;;2.50;1.10;;;14.80;99.90;;;;;;5082353;28;20438;-65
2022/10/23 08:18:34;;;;;;;2.37;1.00;;;15.30;99.90;;;;;;5086290;28;20910;-65
2022/10/23 08:21:02;;;;;;;1.87;0.73;;;15.70;99.90;;;;;;5090718;28;20184;-65
2022/10/23 08:23:28;;;;;;;1.63;0.63;;;16.10;99.90;;;;;;5080552;28;20223;-65
2022/10/23 08:25:59;;;;;;;2.10;0.80;;;16.60;99.90;;;;;;5087303;28;20547;-65
2022/10/23 08:28:25;;;;;;;2.23;0.73;;;16.70;99.90;;;;;;5086322;28;20434;-65
2022/10/23 08:30:51;;;;;;;2.00;0.80;;;16.40;99.90;;;;;;5089142;28;20918;-64
2022/10/23 08:33:16;;;;;;;1.67;0.60;;;16.10;99.90;;;;;;5087871;28;20430;-65
2022/10/23 08:35:42;;;;;;;2.50;0.80;;;15.90;99.90;;;;;;5088113;28;20556;-65
2022/10/23 08:38:09;;;;;;;1.40;0.53;;;15.70;99.90;;;;;;5088512;28;20187;-65
2022/10/23 08:40:35;;;;;;;2.10;0.90;;;15.50;99.90;;;;;;5086128;28;20637;-65
2022/10/23 08:43:09;;;;;;;2.83;0.67;;;15.30;99.90;;;;;;5083411;28;20461;-65
2022/10/23 08:45:39;;;;;;;2.57;0.90;;;15.30;99.90;;;;;;5089306;28;20465;-65
2022/10/23 08:48:23;;;;;;;1.83;0.90;;;17.40;99.90;;;;;;5084646;28;20445;-65
2022/10/23 08:50:55;;;;;;;1.60;0.60;;;15.40;99.90;;;;;;5069686;28;20859;-65
2022/10/23 08:53:42;;;;;;;5.80;1.03;;;15.30;99.90;;;;;;5086650;28;20770;-65
2022/10/23 08:56:23;;;;;;;2.27;0.70;;;15.30;99.90;;;;;;5084884;28;20487;-65
2022/10/23 08:59:19;;;;;;;1.80;0.77;;;15.40;99.90;;;;;;5087123;28;20407;-65
2022/10/23 09:01:59;;;;;;;1.40;0.53;;;15.40;99.90;;;;;;5084654;28;20406;-65
2022/10/23 09:04:25;;;;;;;1.20;0.40;;;15.40;99.90;;;;;;5094398;28;20402;-64
2022/10/23 09:07:06;;;;;;;1.30;0.57;;;16.80;99.90;;;;;;5094269;28;20495;-64
2022/10/23 09:10:02;;;;;;;3.33;0.93;;;15.50;99.90;;;;;;5082569;28;20195;-65
2022/10/23 09:12:29;;;;;;;1.30;0.50;;;14.10;99.90;;;;;;5079927;28;20425;-65
2022/10/23 09:15:04;;;;;;;1.40;0.63;;;16.40;99.90;;;;;;5094804;28;20408;-65
2022/10/23 09:17:37;;;;;;;1.23;0.50;;;15.40;99.90;;;;;;5094226;28;20497;-69
2022/10/23 09:20:12;;;;;;;2.17;0.57;;;15.40;99.90;;;;;;5094368;28;20416;-69
2022/10/23 09:22:38;;;;;;;1.50;0.60;;;15.40;99.90;;;;;;5094074;28;20446;-69
2022/10/23 09:25:10;;;;;;;1.40;0.60;;;16.60;99.90;;;;;;5108154;28;20517;-69
2022/10/23 09:27:36;;;;;;;2.50;0.60;;;15.50;99.90;;;;;;5093886;28;20521;-69
2022/10/23 09:30:01;;;;;;;1.77;0.60;;;15.70;99.90;;;;;;5094231;28;20455;-69
2022/10/23 09:32:35;;;;;;;1.57;0.63;;;15.70;99.90;;;;;;5093597;28;20272;-69
2022/10/23 09:35:01;;;;;;;1.40;0.50;;;15.70;99.90;;;;;;5094088;28;20177;-69
2022/10/23 09:37:33;;;;;;;1.37;0.60;;;15.80;99.90;;;;;;5090560;28;20971;-69
2022/10/23 09:40:23;;;;;;;1.30;0.50;;;15.90;99.90;;;;;;5094058;28;20265;-69
2022/10/23 09:42:58;;;;;;;1.30;0.60;;;15.90;99.90;;;;;;5092971;28;20438;-68
2022/10/23 09:45:28;;;;;;;1.30;0.60;;;16.10;99.90;;;;;;5093953;28;20758;-69
2022/10/23 09:48:19;;;;;;;1.53;0.63;;;16.20;99.90;;;;;;5093813;28;20422;-69
2022/10/23 09:50:51;;;;;;;1.50;0.63;;;16.40;99.90;;;;;;5094342;28;20744;-69
2022/10/23 09:53:37;;;;;;;1.50;0.50;;;16.70;99.90;;;;;;5093582;28;20430;-69
2022/10/23 09:56:24;;;;;;;3.43;0.60;;;16.90;99.90;;;;;;5085864;28;20441;-69
2022/10/23 09:58:59;;;;;;;1.70;0.80;;;17.00;99.90;;;;;;5093237;28;20418;-69
2022/10/23 10:01:28;;;;;;;1.47;0.70;;;17.20;99.90;;;;;;5093551;28;20505;-69
2022/10/23 10:03:54;;;;;;;5.27;0.60;;;17.30;99.90;;;;;;5089728;28;20416;-69
2022/10/23 10:06:26;;;;;;;1.30;0.50;;;17.30;99.90;;;;;;5083945;28;20593;-69
2022/10/23 10:09:02;;;;;;;1.30;0.50;;;17.40;99.90;;;;;;5089173;28;20682;-69
2022/10/23 10:11:51;;;;;;;1.83;0.57;;;17.50;99.90;;;;;;5088652;28;20505;-69
2022/10/23 10:14:28;;;;;;;1.30;0.50;;;17.60;99.90;;;;;;5093846;28;20414;-69
2022/10/23 10:17:04;;;;;;;1.37;0.63;;;17.70;99.90;;;;;;5093471;28;20410;-69
2022/10/23 10:19:46;;;;;;;1.30;0.50;;;17.80;99.90;;;;;;5091265;28;20407;-69
2022/10/23 10:22:38;;;;;;;1.30;0.50;;;17.80;99.90;;;;;;5093444;28;20491;-69
2022/10/23 10:25:18;;;;;;;3.53;0.60;;;18.00;99.90;;;;;;5092587;28;20429;-69
2022/10/23 10:27:44;;;;;;;1.30;0.50;;;18.10;99.90;;;;;;5093220;28;20918;-69
2022/10/23 10:30:10;;;;;;;2.90;0.70;;;18.20;99.90;;;;;;5093559;28;20414;-70
2022/10/23 10:32:53;;;;;;;1.40;0.50;;;18.30;99.90;;;;;;5092626;28;20421;-69
2022/10/23 10:35:32;;;;;;;1.40;0.60;;;18.40;99.90;;;;;;5093875;28;20173;-69
2022/10/23 10:38:07;;;;;;;3.60;0.60;;;18.50;99.90;;;;;;5089490;28;20418;-69
2022/10/23 10:41:01;;;;;;;1.53;0.57;;;18.30;99.10;;;;;;5093286;28;20418;-69
2022/10/23 10:44:00;;;;;;;1.50;0.60;;;18.40;98.90;;;;;;5092513;28;20442;-69
2022/10/23 10:46:47;;;;;;;1.73;0.57;;;18.40;99.10;;;;;;5092831;28;20570;-69
2022/10/23 10:49:25;;;;;;;2.70;0.50;;;18.40;98.50;;;;;;5093214;28;20460;-69
2022/10/23 10:52:02;;;;;;;1.40;0.60;;;18.50;99.40;;;;;;5092560;28;20410;-69
2022/10/23 10:55:01;;;;;;;1.30;0.50;;;18.50;98.60;;;;;;5093052;28;20424;-65
2022/10/23 10:57:31;;;;;;;26.77;1.37;;;18.70;98.60;;;;;;5082726;28;20403;-65
2022/10/23 11:00:04;;;;;;;1.30;0.50;;;18.90;98.50;;;;;;5086637;28;20437;-66
2022/10/23 11:02:40;;;;;;;1.40;0.47;;;19.00;97.90;;;;;;5089904;28;20518;-65
2022/10/23 11:05:18;;;;;;;1.30;0.50;;;19.20;97.10;;;;;;5088404;28;20528;-65
2022/10/23 11:08:10;;;;;;;1.30;0.40;;;19.00;97.30;;;;;;5092693;28;20427;-65
2022/10/23 11:10:41;;;;;;;1.37;0.60;;;19.00;98.10;;;;;;5092665;28;20405;-65
2022/10/23 11:13:36;;;;;;;1.30;0.50;;;18.90;97.70;;;;;;5091179;28;20414;-65
2022/10/23 11:16:24;;;;;;;1.50;0.70;;;19.00;97.80;;;;;;5085340;28;20464;-65
2022/10/23 11:19:04;;;;;;;5.53;0.50;;;19.10;97.00;;;;;;5087623;28;20406;-65
2022/10/23 11:21:52;;;;;;;1.47;0.57;;;19.10;97.60;;;;;;5089510;28;20410;-65
2022/10/23 11:24:38;;;;;;;1.40;0.60;;;19.10;98.50;;;;;;5089582;28;20425;-66
2022/10/23 11:27:30;;;;;;;1.50;0.60;;;19.20;98.60;;;;;;5091819;28;20493;-66
2022/10/23 11:30:26;;;;;;;1.40;0.60;;;19.30;97.90;;;;;;5092268;28;20460;-65
2022/10/23 11:33:06;;;;;;;1.30;0.50;;;19.30;98.00;;;;;;5091773;28;20407;-66
2022/10/23 11:36:02;;;;;;;2.33;0.90;;;19.30;98.70;;;;;;5092210;28;20421;-66
2022/10/23 11:38:38;;;;;;;5.67;0.60;;;19.30;98.20;;;;;;5083817;28;20443;-66
2022/10/23 11:41:16;;;;;;;1.30;0.50;;;19.40;99.50;;;;;;5091830;28;20414;-66
2022/10/23 11:44:05;;;;;;;1.30;0.50;;;19.40;99.60;;;;;;5091340;28;20430;-66
2022/10/23 11:46:36;;;;;;;1.50;0.60;;;19.50;97.60;;;;;;5091073;28;20468;-66
2022/10/23 11:49:04;;;;;;;1.37;0.50;;;19.50;96.70;;;;;;5083863;28;20878;-66
2022/10/23 11:51:33;;;;;;;1.30;0.47;;;19.50;98.20;;;;;;5091541;28;20414;-66
2022/10/23 11:54:12;;;;;;;1.40;0.53;;;19.60;98.30;;;;;;5091835;28;20895;-66
2022/10/23 11:57:05;;;;;;;1.40;0.50;;;19.70;98.30;;;;;;5090798;28;20418;-66
2022/10/23 11:59:36;;;;;;;1.30;0.40;;;19.80;98.40;;;;;;5083119;28;20427;-66
2022/10/23 12:02:18;;;;;;;1.77;0.60;;;19.70;97.70;;;;;;5090914;28;20800;-66
2022/10/23 12:04:50;;;;;;;1.50;0.60;;;19.80;97.40;;;;;;5073546;28;20419;-66
2022/10/23 12:07:37;;;;;;;1.40;0.50;;;19.80;98.20;;;;;;5091893;28;20450;-66
2022/10/23 12:10:33;;;;;;;1.30;0.50;;;20.00;97.80;;;;;;5091807;28;20421;-66
2022/10/23 12:13:04;;;;;;;3.60;0.60;;;20.00;97.10;;;;;;5085821;28;20491;-66
2022/10/23 12:15:31;;;;;;;1.27;0.40;;;20.00;97.80;;;;;;5091741;28;20474;-66
2022/10/23 12:18:14;;;;;;;1.70;0.67;;;20.00;98.20;;;;;;5088215;28;20466;-66
2022/10/23 12:20:42;;;;;;;1.80;0.70;;;19.90;99.10;;;;;;5090888;28;20906;-66
2022/10/23 12:23:35;;;;;;;1.63;0.63;;;20.00;99.90;;;;;;5094119;28;20465;-66
2022/10/23 12:26:09;;;;;;;1.30;0.50;;;20.00;99.90;;;;;;5090734;28;20466;-66
2022/10/23 12:28:57;;;;;;;1.50;0.70;;;20.00;98.80;;;;;;5089680;28;20422;-66
2022/10/23 12:31:28;;;;;;;2.33;0.80;;;20.00;98.90;;;;;;5095277;28;20406;-66
2022/10/23 12:34:14;;;;;;;4.03;0.70;;;20.00;99.20;;;;;;5095567;28;20497;-66
2022/10/23 12:37:09;;;;;;;1.77;0.80;;;20.00;98.80;;;;;;5086146;28;20895;-66
2022/10/23 12:39:37;;;;;;;2.03;0.63;;;20.20;98.90;;;;;;5095451;28;20971;-66
2022/10/23 12:42:05;;;;;;;2.70;1.07;;;20.30;98.70;;;;;;5094103;28;20989;-66
2022/10/23 12:44:31;;;;;;;1.50;0.50;;;20.40;98.30;;;;;;5084561;28;20502;-65
2022/10/23 12:47:00;;;;;;;1.40;0.60;;;20.60;97.00;;;;;;5094819;28;20509;-65
2022/10/23 12:49:30;;;;;;;3.70;0.70;;;20.60;97.80;;;;;;5095884;28;20512;-66
2022/10/23 12:52:04;;;;;;;1.50;0.50;;;20.50;97.40;;;;;;5094929;28;20417;-66
2022/10/23 12:54:32;;;;;;;1.70;0.80;;;20.50;98.70;;;;;;5095536;28;20410;-66
2022/10/23 12:56:57;;;;;;;2.87;0.93;;;20.60;98.40;;;;;;5097272;28;20502;-66
2022/10/23 12:59:37;;;;;;;2.00;0.80;;;20.60;97.70;;;;;;5095030;28;20422;-66
2022/10/23 13:02:23;;;;;;;2.33;0.60;;;20.60;98.20;;;;;;5094288;28;20228;-66
2022/10/23 13:04:51;;;;;;;1.90;0.90;;;20.60;98.60;;;;;;5093981;28;20879;-65
2022/10/23 13:07:20;;;;;;;1.57;0.60;;;20.70;98.00;;;;;;5082746;28;20547;-66
2022/10/23 13:09:46;;;;;;;3.20;0.80;;;20.70;98.30;;;;;;5097751;28;20898;-66
2022/10/23 13:12:33;;;;;;;1.60;0.60;;;20.80;98.30;;;;;;5093249;28;20409;-67
2022/10/23 13:15:07;;;;;;;1.60;0.60;;;20.90;98.80;;;;;;5094796;28;20437;-67
2022/10/23 13:17:39;;;;;;;2.83;0.80;;;21.00;98.10;;;;;;5094756;28;20429;-67